Faro Airport
CZFA : rendu visible

Aérodrome :











RETROUVEZ-NOUS SUR...

 
LOGIN :

S'inscrire | Disclaimer

   EN    FR    IT 

 









Légende :    VFR   VFR Marginal   IFR   IFR Intensif   IFR Très Intensif
Visi : 
Plafond : 
>= 8 km
>= 3000ft
5 à 8 km
1000 à 3000 ft
1500m à 5 km
500 à 1000 ft
800 à 1500m
200 à 500 ft
< 800m
< 200 ft
Symboles :   Orages  Brouillard  Fortes neiges  Fortes précipitations  Vent > 20 kt






- Altitude de l'aérodrome : 2351 ft
- Code IATA : ZFA


CZFA - Faro

DERNIER METAR :
  • 031700Z VRB02KT 30SM SCT130 OVC160 M16/M22 A2999 RMK AC3AS5 SLP219

METARs EXPIRÉS :
  • 031600Z 12003KT 080V160 30SM FEW160 BKN220 M19/M23 A3001 RMK AC2CS5 SLP229
  • 031500Z 14004KT 30SM FEW150 BKN200 M20/M23 A3003 RMK AC2CC4 SLP234

TAF TAF CZFA
Valide du 03 à 16h jusqu'au 03 à 22h UTC


031538Z 0316/0322 VRB03KT P6SM FEW150 RMK NXT FCST BY 031800Z



MET'MAP, la Météo Aéronautique d'un coup d'oeil ! - Copyright ORBIFLY Décembre 2007 - Disclaimer

ORBIFLY MET'MAP TEAM :

Programmation & Développement : Alexandra Zaïnal
Sur une idée originale de : Baudouin d'Aumeries
Assistance à la programmation : Marc-Olivier Méhu
Soutien technique & logistique : Manuel Goepfert

Contact : metmap@orbifly.com




SOURCES & CREDITS :

   NOAA       Earth
Advisory